sensor_id;sensor_type;location;lat;lon;timestamp;pressure;altitude;pressure_sealevel;temperature;humidity
63096;BME280;49184;55.596;37.770;2023-06-26T00:00:00;99452.38;;;17.32;61.03
63096;BME280;49184;55.596;37.770;2023-06-26T00:02:26;99506.88;;;17.63;60.38
63096;BME280;49184;55.596;37.770;2023-06-26T00:04:52;99475.19;;;17.45;60.10
63096;BME280;49184;55.596;37.770;2023-06-26T00:07:20;99418.56;;;17.07;59.64
63096;BME280;49184;55.596;37.770;2023-06-26T00:09:46;99477.63;;;17.46;58.90
63096;BME280;49184;55.596;37.770;2023-06-26T00:12:12;99460.69;;;17.32;58.39
63096;BME280;49184;55.596;37.770;2023-06-26T00:14:38;99420.72;;;17.13;58.61
63096;BME280;49184;55.596;37.770;2023-06-26T00:17:05;99432.75;;;17.21;58.96
63096;BME280;49184;55.596;37.770;2023-06-26T00:19:32;99478.50;;;17.50;58.98
63096;BME280;49184;55.596;37.770;2023-06-26T00:21:58;99458.19;;;17.43;57.86
63096;BME280;49184;55.596;37.770;2023-06-26T00:24:24;99430.44;;;17.23;57.95
63096;BME280;49184;55.596;37.770;2023-06-26T00:26:51;99478.69;;;17.57;58.68
63096;BME280;49184;55.596;37.770;2023-06-26T00:29:17;99428.84;;;17.22;59.41
63096;BME280;49184;55.596;37.770;2023-06-26T00:31:43;99490.66;;;17.61;59.03
63096;BME280;49184;55.596;37.770;2023-06-26T00:34:09;99479.06;;;17.56;58.42
63096;BME280;49184;55.596;37.770;2023-06-26T00:36:35;99505.09;;;17.71;58.27
63096;BME280;49184;55.596;37.770;2023-06-26T00:39:02;99507.44;;;17.69;57.24
63096;BME280;49184;55.596;37.770;2023-06-26T00:41:29;99425.53;;;17.17;57.34
63096;BME280;49184;55.596;37.770;2023-06-26T00:43:55;99415.09;;;17.10;57.82
63096;BME280;49184;55.596;37.770;2023-06-26T00:46:21;99457.72;;;17.41;57.26
63096;BME280;49184;55.596;37.770;2023-06-26T00:48:52;99425.16;;;17.18;57.21
63096;BME280;49184;55.596;37.770;2023-06-26T00:51:20;99492.19;;;17.59;57.59
63096;BME280;49184;55.596;37.770;2023-06-26T00:53:56;99468.97;;;17.48;59.54
63096;BME280;49184;55.596;37.770;2023-06-26T00:56:22;99443.66;;;17.30;57.41
63096;BME280;49184;55.596;37.770;2023-06-26T00:58:49;99411.53;;;17.09;57.56
63096;BME280;49184;55.596;37.770;2023-06-26T01:01:19;99413.84;;;17.07;58.09
63096;BME280;49184;55.596;37.770;2023-06-26T01:03:52;99416.59;;;17.07;59.51
63096;BME280;49184;55.596;37.770;2023-06-26T01:06:22;99492.88;;;17.56;58.09
63096;BME280;49184;55.596;37.770;2023-06-26T01:08:50;99443.88;;;17.25;59.62
63096;BME280;49184;55.596;37.770;2023-06-26T01:11:18;99415.63;;;17.00;60.58
63096;BME280;49184;55.596;37.770;2023-06-26T01:13:46;99443.56;;;16.98;61.73
63096;BME280;49184;55.596;37.770;2023-06-26T01:16:14;99402.66;;;16.60;62.75
63096;BME280;49184;55.596;37.770;2023-06-26T01:18:41;99431.34;;;16.71;63.10
63096;BME280;49184;55.596;37.770;2023-06-26T01:21:09;99459.28;;;16.82;62.86
63096;BME280;49184;55.596;37.770;2023-06-26T01:24:17;99490.28;;;17.03;63.01
63096;BME280;49184;55.596;37.770;2023-06-26T01:27:05;99440.81;;;16.70;63.06
63096;BME280;49184;55.596;37.770;2023-06-26T01:29:32;99434.81;;;16.68;62.56
63096;BME280;49184;55.596;37.770;2023-06-26T01:32:00;99413.41;;;16.49;62.85
63096;BME280;49184;55.596;37.770;2023-06-26T01:34:28;99408.56;;;16.46;62.65
63096;BME280;49184;55.596;37.770;2023-06-26T01:36:55;99410.28;;;16.51;62.96
63096;BME280;49184;55.596;37.770;2023-06-26T01:39:24;99443.91;;;16.68;63.40
63096;BME280;49184;55.596;37.770;2023-06-26T01:41:52;99427.72;;;16.55;63.48
63096;BME280;49184;55.596;37.770;2023-06-26T01:44:26;99422.59;;;16.41;63.56
63096;BME280;49184;55.596;37.770;2023-06-26T01:47:01;99434.53;;;16.45;64.01
63096;BME280;49184;55.596;37.770;2023-06-26T01:52:25;99501.16;;;16.84;64.21
63096;BME280;49184;55.596;37.770;2023-06-26T01:55:09;99405.19;;;16.12;64.24
63096;BME280;49184;55.596;37.770;2023-06-26T01:57:38;99485.25;;;16.53;65.22
63096;BME280;49184;55.596;37.770;2023-06-26T02:00:05;99461.34;;;16.32;65.43
63096;BME280;49184;55.596;37.770;2023-06-26T02:02:41;99477.47;;;16.42;65.52
63096;BME280;49184;55.596;37.770;2023-06-26T02:05:12;99445.75;;;16.24;65.84
63096;BME280;49184;55.596;37.770;2023-06-26T02:08:14;99477.88;;;16.44;65.34
63096;BME280;49184;55.596;37.770;2023-06-26T02:10:48;99480.66;;;16.44;65.40
63096;BME280;49184;55.596;37.770;2023-06-26T02:13:17;99434.41;;;16.13;65.60
63096;BME280;49184;55.596;37.770;2023-06-26T02:15:43;99416.00;;;16.05;65.66
63096;BME280;49184;55.596;37.770;2023-06-26T02:18:10;99478.47;;;16.50;65.44
63096;BME280;49184;55.596;37.770;2023-06-26T02:21:02;99503.03;;;16.67;65.98
63096;BME280;49184;55.596;37.770;2023-06-26T02:31:56;99490.78;;;16.53;66.25
63096;BME280;49184;55.596;37.770;2023-06-26T02:34:22;99451.16;;;16.33;65.93
63096;BME280;49184;55.596;37.770;2023-06-26T02:36:48;99508.66;;;16.71;66.05
63096;BME280;49184;55.596;37.770;2023-06-26T02:39:14;99410.38;;;16.14;66.02
63096;BME280;49184;55.596;37.770;2023-06-26T02:41:42;99427.94;;;16.21;66.08
63096;BME280;49184;55.596;37.770;2023-06-26T02:44:10;99424.84;;;16.23;65.87
63096;BME280;49184;55.596;37.770;2023-06-26T02:46:38;99407.94;;;16.12;66.64
63096;BME280;49184;55.596;37.770;2023-06-26T02:49:23;99441.25;;;16.32;66.62
63096;BME280;49184;55.596;37.770;2023-06-26T02:58:57;99441.44;;;16.51;66.77
63096;BME280;49184;55.596;37.770;2023-06-26T03:04:49;99451.00;;;16.82;65.91
63096;BME280;49184;55.596;37.770;2023-06-26T03:07:46;99503.97;;;17.28;65.15
63096;BME280;49184;55.596;37.770;2023-06-26T03:10:12;99505.69;;;17.32;65.17
63096;BME280;49184;55.596;37.770;2023-06-26T03:12:39;99461.44;;;17.17;64.71
63096;BME280;49184;55.596;37.770;2023-06-26T03:15:05;99431.66;;;17.10;64.69
63096;BME280;49184;55.596;37.770;2023-06-26T03:17:57;99494.84;;;17.71;63.44
63096;BME280;49184;55.596;37.770;2023-06-26T03:21:25;99471.03;;;17.67;59.11
63096;BME280;49184;55.596;37.770;2023-06-26T03:51:38;99440.88;;;18.44;57.39
63096;BME280;49184;55.596;37.770;2023-06-26T04:06:40;99403.22;;;18.78;54.35
63096;BME280;49184;55.596;37.770;2023-06-26T04:09:32;99399.34;;;18.83;54.62
63096;BME280;49184;55.596;37.770;2023-06-26T04:12:07;99487.63;;;19.46;53.87
63096;BME280;49184;55.596;37.770;2023-06-26T04:15:40;99484.03;;;19.65;54.49
63096;BME280;49184;55.596;37.770;2023-06-26T04:19:09;99396.00;;;19.16;53.42
63096;BME280;49184;55.596;37.770;2023-06-26T04:22:25;99491.50;;;19.84;53.70
63096;BME280;49184;55.596;37.770;2023-06-26T04:24:52;99413.22;;;19.48;53.45
63096;BME280;49184;55.596;37.770;2023-06-26T04:27:41;99461.53;;;19.93;51.54
63096;BME280;49184;55.596;37.770;2023-06-26T04:30:09;99483.34;;;20.22;52.17
63096;BME280;49184;55.596;37.770;2023-06-26T04:32:36;99426.59;;;19.92;52.14
63096;BME280;49184;55.596;37.770;2023-06-26T04:35:02;99430.78;;;20.06;51.64
63096;BME280;49184;55.596;37.770;2023-06-26T04:37:29;99453.31;;;20.27;52.65
63096;BME280;49184;55.596;37.770;2023-06-26T04:40:01;99448.59;;;20.31;51.85
63096;BME280;49184;55.596;37.770;2023-06-26T04:42:31;99468.28;;;20.49;51.98
63096;BME280;49184;55.596;37.770;2023-06-26T04:44:58;99464.81;;;20.56;51.43
63096;BME280;49184;55.596;37.770;2023-06-26T04:50:59;99454.31;;;20.72;51.71
63096;BME280;49184;55.596;37.770;2023-06-26T04:53:26;99484.53;;;21.07;52.23
63096;BME280;49184;55.596;37.770;2023-06-26T04:55:55;99432.69;;;20.88;52.32
63096;BME280;49184;55.596;37.770;2023-06-26T04:58:37;99453.22;;;21.14;51.40
63096;BME280;49184;55.596;37.770;2023-06-26T05:01:04;99407.69;;;20.88;50.95
63096;BME280;49184;55.596;37.770;2023-06-26T05:03:32;99397.41;;;20.93;50.55
63096;BME280;49184;55.596;37.770;2023-06-26T05:05:58;99455.00;;;21.33;50.61
63096;BME280;49184;55.596;37.770;2023-06-26T05:12:08;99480.78;;;21.67;50.66
63096;BME280;49184;55.596;37.770;2023-06-26T05:15:00;99485.16;;;21.68;50.43
63096;BME280;49184;55.596;37.770;2023-06-26T05:17:31;99403.69;;;21.23;51.01
63096;BME280;49184;55.596;37.770;2023-06-26T05:19:57;99398.19;;;21.30;51.27
63096;BME280;49184;55.596;37.770;2023-06-26T05:22:23;99402.25;;;21.37;50.16
63096;BME280;49184;55.596;37.770;2023-06-26T05:24:51;99458.19;;;21.72;49.28
63096;BME280;49184;55.596;37.770;2023-06-26T05:27:32;99467.72;;;21.75;50.26
63096;BME280;49184;55.596;37.770;2023-06-26T05:29:59;99427.88;;;21.60;48.22
63096;BME280;49184;55.596;37.770;2023-06-26T05:32:28;99417.09;;;21.55;47.76
63096;BME280;49184;55.596;37.770;2023-06-26T05:34:57;99482.22;;;21.95;48.15
63096;BME280;49184;55.596;37.770;2023-06-26T05:37:49;99481.16;;;22.10;47.99
63096;BME280;49184;55.596;37.770;2023-06-26T05:40:17;99404.09;;;21.66;47.51
63096;BME280;49184;55.596;37.770;2023-06-26T05:42:45;99412.09;;;21.75;47.10
63096;BME280;49184;55.596;37.770;2023-06-26T05:45:11;99478.84;;;22.16;46.90
63096;BME280;49184;55.596;37.770;2023-06-26T05:50:55;99445.72;;;22.07;47.83
63096;BME280;49184;55.596;37.770;2023-06-26T05:53:23;99463.00;;;22.31;46.77
63096;BME280;49184;55.596;37.770;2023-06-26T05:55:49;99443.44;;;22.16;45.32
63096;BME280;49184;55.596;37.770;2023-06-26T05:58:16;99433.09;;;22.17;45.16
63096;BME280;49184;55.596;37.770;2023-06-26T06:00:43;99441.16;;;22.33;46.34
63096;BME280;49184;55.596;37.770;2023-06-26T06:03:10;99437.59;;;22.39;46.00
63096;BME280;49184;55.596;37.770;2023-06-26T06:05:36;99477.16;;;22.73;46.07
63096;BME280;49184;55.596;37.770;2023-06-26T06:08:06;99456.06;;;22.72;44.72
63096;BME280;49184;55.596;37.770;2023-06-26T06:10:32;99454.88;;;22.77;45.87
63096;BME280;49184;55.596;37.770;2023-06-26T06:12:58;99467.69;;;22.89;45.74
63096;BME280;49184;55.596;37.770;2023-06-26T06:15:24;99463.28;;;22.84;44.92
63096;BME280;49184;55.596;37.770;2023-06-26T06:17:50;99471.34;;;23.00;44.61
63096;BME280;49184;55.596;37.770;2023-06-26T06:20:17;99469.34;;;23.08;44.75
63096;BME280;49184;55.596;37.770;2023-06-26T06:22:45;99419.47;;;22.81;44.49
63096;BME280;49184;55.596;37.770;2023-06-26T06:25:11;99458.63;;;23.10;44.35
63096;BME280;49184;55.596;37.770;2023-06-26T06:27:38;99414.31;;;22.87;44.65
63096;BME280;49184;55.596;37.770;2023-06-26T06:30:04;99472.22;;;23.29;43.81
63096;BME280;49184;55.596;37.770;2023-06-26T06:32:30;99411.56;;;22.94;43.05
63096;BME280;49184;55.596;37.770;2023-06-26T06:34:56;99450.28;;;23.28;43.72
63096;BME280;49184;55.596;37.770;2023-06-26T06:37:23;99449.09;;;23.29;44.04
63096;BME280;49184;55.596;37.770;2023-06-26T06:39:49;99428.75;;;23.17;44.09
63096;BME280;49184;55.596;37.770;2023-06-26T06:42:14;99429.16;;;23.27;43.19
63096;BME280;49184;55.596;37.770;2023-06-26T06:44:42;99408.00;;;23.08;41.50
63096;BME280;49184;55.596;37.770;2023-06-26T06:47:08;99418.41;;;23.25;42.50
63096;BME280;49184;55.596;37.770;2023-06-26T06:49:34;99435.16;;;23.39;41.49
63096;BME280;49184;55.596;37.770;2023-06-26T06:52:00;99384.94;;;23.18;43.48
63096;BME280;49184;55.596;37.770;2023-06-26T06:54:26;99422.81;;;23.37;41.81
63096;BME280;49184;55.596;37.770;2023-06-26T06:56:53;99436.38;;;23.45;42.28
63096;BME280;49184;55.596;37.770;2023-06-26T06:59:19;99384.94;;;23.18;41.11
63096;BME280;49184;55.596;37.770;2023-06-26T07:01:47;99400.91;;;23.32;42.63
63096;BME280;49184;55.596;37.770;2023-06-26T07:04:16;99371.38;;;23.24;42.45
63096;BME280;49184;55.596;37.770;2023-06-26T07:06:47;99348.28;;;23.23;42.25
63096;BME280;49184;55.596;37.770;2023-06-26T07:09:18;99366.63;;;23.42;41.98
63096;BME280;49184;55.596;37.770;2023-06-26T07:11:53;99428.84;;;23.85;42.14
63096;BME280;49184;55.596;37.770;2023-06-26T07:14:23;99422.44;;;23.92;40.93
63096;BME280;49184;55.596;37.770;2023-06-26T07:16:55;99400.13;;;23.88;41.04
63096;BME280;49184;55.596;37.770;2023-06-26T07:19:22;99381.78;;;23.87;41.19
63096;BME280;49184;55.596;37.770;2023-06-26T07:21:52;99437.53;;;24.27;39.92
63096;BME280;49184;55.596;37.770;2023-06-26T07:24:24;99443.13;;;24.37;39.45
63096;BME280;49184;55.596;37.770;2023-06-26T07:26:59;99366.59;;;23.92;39.37
63096;BME280;49184;55.596;37.770;2023-06-26T07:29:29;99404.44;;;24.18;39.65
63096;BME280;49184;55.596;37.770;2023-06-26T07:31:55;99368.97;;;24.11;40.24
63096;BME280;49184;55.596;37.770;2023-06-26T07:34:21;99435.84;;;24.69;39.26
63096;BME280;49184;55.596;37.770;2023-06-26T07:36:49;99417.53;;;24.60;38.60
63096;BME280;49184;55.596;37.770;2023-06-26T07:39:17;99436.72;;;24.51;36.99
63096;BME280;49184;55.596;37.770;2023-06-26T07:41:43;99410.38;;;24.38;38.71
63096;BME280;49184;55.596;37.770;2023-06-26T07:44:09;99391.22;;;24.33;38.84
63096;BME280;49184;55.596;37.770;2023-06-26T07:46:35;99432.25;;;24.72;38.83
63096;BME280;49184;55.596;37.770;2023-06-26T07:49:04;99419.84;;;24.73;36.90
63096;BME280;49184;55.596;37.770;2023-06-26T07:51:30;99394.75;;;24.58;37.53
63096;BME280;49184;55.596;37.770;2023-06-26T07:53:56;99397.50;;;24.69;38.34
63096;BME280;49184;55.596;37.770;2023-06-26T07:56:23;99393.03;;;24.82;37.76
63096;BME280;49184;55.596;37.770;2023-06-26T07:59:00;99324.91;;;24.55;37.17
63096;BME280;49184;55.596;37.770;2023-06-26T08:01:29;99365.47;;;24.88;37.80
63096;BME280;49184;55.596;37.770;2023-06-26T08:03:55;99409.22;;;25.23;37.43
63096;BME280;49184;55.596;37.770;2023-06-26T08:06:22;99352.19;;;24.99;38.14
63096;BME280;49184;55.596;37.770;2023-06-26T08:08:48;99391.56;;;25.34;36.07
63096;BME280;49184;55.596;37.770;2023-06-26T08:11:14;99361.31;;;25.14;34.45
63096;BME280;49184;55.596;37.770;2023-06-26T08:13:40;99388.41;;;25.28;36.13
63096;BME280;49184;55.596;37.770;2023-06-26T08:16:06;99359.72;;;25.17;35.26
63096;BME280;49184;55.596;37.770;2023-06-26T08:18:57;99412.28;;;25.43;37.06
63096;BME280;49184;55.596;37.770;2023-06-26T08:21:23;99404.63;;;25.51;37.13
63096;BME280;49184;55.596;37.770;2023-06-26T08:24:09;99362.09;;;25.18;36.97
63096;BME280;49184;55.596;37.770;2023-06-26T08:26:36;99404.88;;;25.67;36.43
63096;BME280;49184;55.596;37.770;2023-06-26T08:29:03;99412.72;;;25.90;36.23
63096;BME280;49184;55.596;37.770;2023-06-26T08:31:34;99399.38;;;26.01;35.19
63096;BME280;49184;55.596;37.770;2023-06-26T08:34:04;99402.84;;;26.16;34.93
63096;BME280;49184;55.596;37.770;2023-06-26T08:36:31;99343.13;;;25.85;34.78
63096;BME280;49184;55.596;37.770;2023-06-26T08:38:58;99373.19;;;26.19;36.54
63096;BME280;49184;55.596;37.770;2023-06-26T08:41:24;99373.66;;;26.14;33.24
63096;BME280;49184;55.596;37.770;2023-06-26T08:43:50;99385.03;;;25.96;33.78
63096;BME280;49184;55.596;37.770;2023-06-26T08:46:19;99370.50;;;25.67;34.95
63096;BME280;49184;55.596;37.770;2023-06-26T08:48:49;99419.16;;;25.87;34.39
63096;BME280;49184;55.596;37.770;2023-06-26T08:51:17;99380.63;;;25.53;34.97
63096;BME280;49184;55.596;37.770;2023-06-26T08:53:57;99414.84;;;25.72;34.69
63096;BME280;49184;55.596;37.770;2023-06-26T08:56:28;99373.47;;;25.45;34.91
63096;BME280;49184;55.596;37.770;2023-06-26T08:58:56;99399.00;;;25.54;35.19
63096;BME280;49184;55.596;37.770;2023-06-26T09:01:24;99392.63;;;25.50;36.01
63096;BME280;49184;55.596;37.770;2023-06-26T09:03:53;99408.81;;;25.77;34.62
63096;BME280;49184;55.596;37.770;2023-06-26T09:06:19;99400.78;;;25.79;34.80
63096;BME280;49184;55.596;37.770;2023-06-26T09:08:45;99396.28;;;25.92;35.82
63096;BME280;49184;55.596;37.770;2023-06-26T09:11:12;99401.88;;;25.92;35.12
63096;BME280;49184;55.596;37.770;2023-06-26T09:13:39;99383.22;;;25.75;35.01
63096;BME280;49184;55.596;37.770;2023-06-26T09:16:09;99371.66;;;25.69;34.49
63096;BME280;49184;55.596;37.770;2023-06-26T09:18:35;99370.88;;;25.69;33.99
63096;BME280;49184;55.596;37.770;2023-06-26T09:21:09;99387.94;;;25.85;34.77
63096;BME280;49184;55.596;37.770;2023-06-26T09:23:36;99362.81;;;25.74;34.30
63096;BME280;49184;55.596;37.770;2023-06-26T09:26:05;99387.00;;;25.99;34.11
63096;BME280;49184;55.596;37.770;2023-06-26T09:28:48;99332.56;;;25.59;34.53
63096;BME280;49184;55.596;37.770;2023-06-26T09:34:31;99357.38;;;26.01;34.44
63096;BME280;49184;55.596;37.770;2023-06-26T09:37:01;99364.50;;;26.10;33.45
63096;BME280;49184;55.596;37.770;2023-06-26T09:39:44;99318.75;;;25.82;33.59
63096;BME280;49184;55.596;37.770;2023-06-26T09:42:33;99336.44;;;25.72;33.64
63096;BME280;49184;55.596;37.770;2023-06-26T09:45:18;99306.75;;;25.40;35.26
63096;BME280;49184;55.596;37.770;2023-06-26T09:47:46;99359.38;;;25.60;32.72
63096;BME280;49184;55.596;37.770;2023-06-26T09:50:25;99332.09;;;25.19;32.06
63096;BME280;49184;55.596;37.770;2023-06-26T09:53:15;99305.50;;;24.93;32.98
63096;BME280;49184;55.596;37.770;2023-06-26T09:55:44;99304.97;;;25.08;32.30
63096;BME280;49184;55.596;37.770;2023-06-26T09:58:11;99365.88;;;25.46;32.84
63096;BME280;49184;55.596;37.770;2023-06-26T10:00:46;99301.47;;;25.01;33.05
63096;BME280;49184;55.596;37.770;2023-06-26T10:03:13;99376.22;;;25.52;33.56
63096;BME280;49184;55.596;37.770;2023-06-26T10:05:40;99367.22;;;25.27;33.80
63096;BME280;49184;55.596;37.770;2023-06-26T10:08:19;99348.22;;;24.93;34.42
63096;BME280;49184;55.596;37.770;2023-06-26T10:10:53;99347.97;;;24.77;34.37
63096;BME280;49184;55.596;37.770;2023-06-26T10:13:24;99375.16;;;24.66;34.50
63096;BME280;49184;55.596;37.770;2023-06-26T10:15:54;99362.47;;;24.50;35.98
63096;BME280;49184;55.596;37.770;2023-06-26T10:18:26;99366.47;;;24.42;35.00
63096;BME280;49184;55.596;37.770;2023-06-26T10:20:57;99363.72;;;24.31;36.10
63096;BME280;49184;55.596;37.770;2023-06-26T10:23:27;99327.44;;;24.17;37.68
63096;BME280;49184;55.596;37.770;2023-06-26T10:25:58;99340.91;;;24.40;38.08
63096;BME280;49184;55.596;37.770;2023-06-26T10:28:28;99382.31;;;24.77;35.52
63096;BME280;49184;55.596;37.770;2023-06-26T10:30:57;99379.06;;;24.82;34.84
63096;BME280;49184;55.596;37.770;2023-06-26T10:33:26;99366.69;;;24.87;34.09
63096;BME280;49184;55.596;37.770;2023-06-26T10:35:52;99368.22;;;24.92;35.09
63096;BME280;49184;55.596;37.770;2023-06-26T10:38:19;99350.28;;;24.85;34.86
63096;BME280;49184;55.596;37.770;2023-06-26T10:40:48;99336.31;;;24.85;35.70
63096;BME280;49184;55.596;37.770;2023-06-26T10:43:29;99349.72;;;25.16;35.31
63096;BME280;49184;55.596;37.770;2023-06-26T10:45:59;99342.44;;;25.25;33.85
63096;BME280;49184;55.596;37.770;2023-06-26T10:48:29;99328.41;;;25.33;33.73
63096;BME280;49184;55.596;37.770;2023-06-26T10:50:56;99316.34;;;25.39;35.07
63096;BME280;49184;55.596;37.770;2023-06-26T10:53:23;99353.28;;;25.68;34.78
63096;BME280;49184;55.596;37.770;2023-06-26T10:56:04;99335.00;;;25.57;34.93
63096;BME280;49184;55.596;37.770;2023-06-26T10:58:50;99341.69;;;25.70;34.08
63096;BME280;49184;55.596;37.770;2023-06-26T11:01:21;99310.56;;;25.61;35.33
63096;BME280;49184;55.596;37.770;2023-06-26T11:06:30;99297.75;;;25.63;33.33
63096;BME280;49184;55.596;37.770;2023-06-26T11:09:08;99330.06;;;26.09;32.53
63096;BME280;49184;55.596;37.770;2023-06-26T11:11:55;99333.22;;;26.15;32.49
63096;BME280;49184;55.596;37.770;2023-06-26T11:14:26;99338.84;;;26.11;32.50
63096;BME280;49184;55.596;37.770;2023-06-26T11:16:56;99325.75;;;26.01;30.93
63096;BME280;49184;55.596;37.770;2023-06-26T11:19:25;99315.88;;;25.89;31.92
63096;BME280;49184;55.596;37.770;2023-06-26T11:21:58;99299.75;;;26.00;31.53
63096;BME280;49184;55.596;37.770;2023-06-26T11:24:25;99305.03;;;26.29;31.75
63096;BME280;49184;55.596;37.770;2023-06-26T11:26:52;99266.31;;;26.20;33.01
63096;BME280;49184;55.596;37.770;2023-06-26T11:29:18;99311.28;;;26.71;32.02
63096;BME280;49184;55.596;37.770;2023-06-26T11:31:44;99253.22;;;26.41;31.38
63096;BME280;49184;55.596;37.770;2023-06-26T11:34:12;99300.75;;;26.79;29.39
63096;BME280;49184;55.596;37.770;2023-06-26T11:36:42;99289.63;;;26.71;30.41
63096;BME280;49184;55.596;37.770;2023-06-26T11:39:13;99298.81;;;26.76;30.89
63096;BME280;49184;55.596;37.770;2023-06-26T11:41:40;99300.59;;;26.62;30.39
63096;BME280;49184;55.596;37.770;2023-06-26T11:44:09;99313.25;;;26.43;29.80
63096;BME280;49184;55.596;37.770;2023-06-26T11:46:36;99308.72;;;26.22;28.81
63096;BME280;49184;55.596;37.770;2023-06-26T11:49:04;99294.38;;;26.17;28.88
63096;BME280;49184;55.596;37.770;2023-06-26T11:51:31;99283.00;;;25.97;29.03
63096;BME280;49184;55.596;37.770;2023-06-26T11:53:57;99297.06;;;26.24;29.41
63096;BME280;49184;55.596;37.770;2023-06-26T11:56:24;99255.44;;;26.26;30.17
63096;BME280;49184;55.596;37.770;2023-06-26T11:59:05;99280.28;;;26.82;29.84
63096;BME280;49184;55.596;37.770;2023-06-26T12:04:01;99275.28;;;27.44;30.42
63096;BME280;49184;55.596;37.770;2023-06-26T12:06:32;99265.88;;;27.74;27.35
63096;BME280;49184;55.596;37.770;2023-06-26T12:09:02;99234.44;;;27.82;27.06
63096;BME280;49184;55.596;37.770;2023-06-26T12:11:33;99257.31;;;28.21;27.28
63096;BME280;49184;55.596;37.770;2023-06-26T12:14:01;99223.25;;;28.19;27.64
63096;BME280;49184;55.596;37.770;2023-06-26T12:16:29;99255.31;;;28.57;26.65
63096;BME280;49184;55.596;37.770;2023-06-26T12:19:03;99239.53;;;28.64;25.48
63096;BME280;49184;55.596;37.770;2023-06-26T12:21:49;99256.31;;;28.84;25.83
63096;BME280;49184;55.596;37.770;2023-06-26T12:24:20;99229.16;;;28.61;26.07
63096;BME280;49184;55.596;37.770;2023-06-26T12:26:53;99241.19;;;28.45;27.45
63096;BME280;49184;55.596;37.770;2023-06-26T12:29:33;99226.09;;;27.99;27.33
63096;BME280;49184;55.596;37.770;2023-06-26T12:32:00;99247.56;;;28.09;28.27
63096;BME280;49184;55.596;37.770;2023-06-26T12:34:32;99233.28;;;28.00;28.85
63096;BME280;49184;55.596;37.770;2023-06-26T12:37:07;99245.88;;;27.72;28.54
63096;BME280;49184;55.596;37.770;2023-06-26T12:39:51;99250.25;;;27.53;28.48
63096;BME280;49184;55.596;37.770;2023-06-26T12:42:19;99245.72;;;27.59;28.85
63096;BME280;49184;55.596;37.770;2023-06-26T12:44:46;99195.78;;;27.27;29.02
63096;BME280;49184;55.596;37.770;2023-06-26T12:47:15;99234.66;;;27.48;28.51
63096;BME280;49184;55.596;37.770;2023-06-26T12:49:44;99232.31;;;27.47;28.64
63096;BME280;49184;55.596;37.770;2023-06-26T12:52:15;99216.09;;;27.54;27.90
63096;BME280;49184;55.596;37.770;2023-06-26T12:54:43;99231.50;;;27.90;28.88
63096;BME280;49184;55.596;37.770;2023-06-26T12:57:10;99232.97;;;28.14;27.90
63096;BME280;49184;55.596;37.770;2023-06-26T12:59:37;99237.38;;;27.75;28.36
63096;BME280;49184;55.596;37.770;2023-06-26T13:02:04;99228.00;;;27.19;28.42
63096;BME280;49184;55.596;37.770;2023-06-26T13:04:30;99225.50;;;27.24;27.70
63096;BME280;49184;55.596;37.770;2023-06-26T13:06:56;99233.75;;;27.78;30.00
63096;BME280;49184;55.596;37.770;2023-06-26T13:09:25;99213.81;;;28.09;27.67
63096;BME280;49184;55.596;37.770;2023-06-26T13:11:52;99212.22;;;28.28;27.32
63096;BME280;49184;55.596;37.770;2023-06-26T13:14:18;99205.63;;;28.34;26.94
63096;BME280;49184;55.596;37.770;2023-06-26T13:16:44;99204.00;;;28.53;27.68
63096;BME280;49184;55.596;37.770;2023-06-26T13:19:11;99207.28;;;28.52;27.12
63096;BME280;49184;55.596;37.770;2023-06-26T13:21:37;99203.63;;;27.99;26.27
63096;BME280;49184;55.596;37.770;2023-06-26T13:24:05;99191.25;;;27.33;27.03
63096;BME280;49184;55.596;37.770;2023-06-26T13:26:31;99220.66;;;27.01;27.82
63096;BME280;49184;55.596;37.770;2023-06-26T13:28:58;99206.78;;;26.67;27.35
63096;BME280;49184;55.596;37.770;2023-06-26T13:31:24;99182.09;;;26.58;27.18
63096;BME280;49184;55.596;37.770;2023-06-26T13:33:50;99211.41;;;26.54;27.08
63096;BME280;49184;55.596;37.770;2023-06-26T13:36:18;99217.25;;;26.36;27.82
63096;BME280;49184;55.596;37.770;2023-06-26T13:38:46;99166.28;;;25.87;29.71
63096;BME280;49184;55.596;37.770;2023-06-26T13:41:17;99169.56;;;25.78;28.91
63096;BME280;49184;55.596;37.770;2023-06-26T13:43:45;99200.84;;;26.34;29.14
63096;BME280;49184;55.596;37.770;2023-06-26T13:46:11;99169.34;;;26.54;27.84
63096;BME280;49184;55.596;37.770;2023-06-26T13:48:39;99199.81;;;27.26;28.87
63096;BME280;49184;55.596;37.770;2023-06-26T13:51:07;99196.09;;;27.52;27.25
63096;BME280;49184;55.596;37.770;2023-06-26T13:53:33;99185.50;;;27.60;25.73
63096;BME280;49184;55.596;37.770;2023-06-26T13:56:01;99206.47;;;27.75;26.73
63096;BME280;49184;55.596;37.770;2023-06-26T13:58:27;99173.16;;;27.77;27.54
63096;BME280;49184;55.596;37.770;2023-06-26T14:00:55;99209.53;;;28.21;26.14
63096;BME280;49184;55.596;37.770;2023-06-26T14:03:21;99180.56;;;28.24;26.60
63096;BME280;49184;55.596;37.770;2023-06-26T14:05:50;99187.31;;;28.46;26.20
63096;BME280;49184;55.596;37.770;2023-06-26T14:08:16;99170.97;;;28.57;25.35
63096;BME280;49184;55.596;37.770;2023-06-26T14:10:42;99192.25;;;28.75;25.00
63096;BME280;49184;55.596;37.770;2023-06-26T14:13:09;99174.75;;;28.67;25.65
63096;BME280;49184;55.596;37.770;2023-06-26T14:15:37;99172.56;;;28.59;26.06
63096;BME280;49184;55.596;37.770;2023-06-26T14:18:06;99145.91;;;28.47;26.15
63096;BME280;49184;55.596;37.770;2023-06-26T14:20:32;99185.47;;;28.89;25.35
63096;BME280;49184;55.596;37.770;2023-06-26T14:23:02;99186.00;;;29.00;25.65
63096;BME280;49184;55.596;37.770;2023-06-26T14:25:29;99181.59;;;28.99;25.14
63096;BME280;49184;55.596;37.770;2023-06-26T14:27:58;99147.16;;;28.78;25.69